Time;durP1;ratioP1;P1;durP2;ratioP2;P2;SDS_P1;SDS_P2;PMS_P1;PMS_P2;Temp;Humidity;BMP_temperature;BMP_pressure;BME280_temperature;BME280_humidity;BME280_pressure;Samples;Min_cycle;Max_cycle;Signal;HPM_P1;HPM_P2
2023/01/07 00:01:27;;;;;;;7.78;4.20;;;;;;;-5.53;68.56;100629.48;1811709;79;21029;-78
2023/01/07 00:03:54;;;;;;;6.97;3.75;;;;;;;-5.48;68.56;100634.55;1814771;79;21537;-78
2023/01/07 00:06:25;;;;;;;7.83;4.45;;;;;;;-5.49;68.40;100635.42;1813796;78;21042;-79
2023/01/07 00:08:53;;;;;;;6.65;3.75;;;;;;;-5.59;68.43;100638.73;1813155;78;21222;-79
2023/01/07 00:11:26;;;;;;;8.80;4.53;;;;;;;-5.67;68.35;100632.47;1755111;80;21085;-81
2023/01/07 00:13:54;;;;;;;6.90;4.03;;;;;;;-5.78;68.25;100632.76;1780637;79;20999;-85
2023/01/07 00:16:24;;;;;;;5.97;3.42;;;;;;;-5.90;68.20;100636.99;1767409;80;20964;-82
2023/01/07 00:18:54;;;;;;;5.78;4.05;;;;;;;-6.01;68.43;100635.16;1779490;78;20923;-81
2023/01/07 00:21:21;;;;;;;6.60;3.72;;;;;;;-6.09;68.87;100640.55;1807191;79;21050;-82
2023/01/07 00:23:48;;;;;;;8.45;4.53;;;;;;;-6.08;69.00;100640.96;1721729;83;21558;-82
2023/01/07 00:26:17;;;;;;;7.70;4.50;;;;;;;-6.15;68.73;100643.30;1728759;82;20999;-83
2023/01/07 00:28:48;;;;;;;6.92;4.05;;;;;;;-6.19;68.84;100645.56;1722453;82;21121;-83
2023/01/07 00:31:19;;;;;;;8.68;4.30;;;;;;;-6.20;69.10;100646.02;1774898;80;20971;-82
2023/01/07 00:33:50;;;;;;;7.12;3.90;;;;;;;-6.15;69.20;100658.81;1772469;80;23167;-76
2023/01/07 00:36:17;;;;;;;10.03;4.80;;;;;;;-6.10;69.19;100669.03;1774734;80;21023;-77
2023/01/07 00:38:43;;;;;;;6.20;3.92;;;;;;;-6.10;69.02;100661.27;1767327;80;21046;-76
2023/01/07 00:41:10;;;;;;;8.60;4.53;;;;;;;-6.07;69.01;100663.80;1753197;80;21525;-76
2023/01/07 00:43:36;;;;;;;8.83;4.03;;;;;;;-6.03;68.91;100660.23;1739173;81;21093;-79
2023/01/07 00:46:03;;;;;;;7.05;4.30;;;;;;;-5.96;68.81;100666.95;1809922;78;21143;-77
2023/01/07 00:48:30;;;;;;;10.05;4.72;;;;;;;-5.96;68.71;100669.54;1811442;79;21495;-77
2023/01/07 00:50:56;;;;;;;7.55;4.12;;;;;;;-5.99;68.69;100668.31;1738383;82;21042;-78
2023/01/07 00:53:24;;;;;;;9.10;4.53;;;;;;;-5.96;68.67;100670.83;1774262;80;21030;-81
2023/01/07 00:55:50;;;;;;;7.15;4.55;;;;;;;-5.98;68.28;100676.50;1774803;80;21578;-78
2023/01/07 00:58:22;;;;;;;8.45;4.60;;;;;;;-6.01;68.44;100680.44;1754658;80;20948;-83
2023/01/07 01:00:58;;;;;;;7.08;4.15;;;;;;;-5.94;68.52;100679.38;1741169;81;21054;-76
2023/01/07 01:03:25;;;;;;;6.87;4.05;;;;;;;-5.88;68.56;100679.20;1729295;81;21069;-80
2023/01/07 01:05:51;;;;;;;6.87;4.05;;;;;;;-5.82;68.41;100684.20;1755377;80;21050;-78
2023/01/07 01:08:19;;;;;;;8.58;4.50;;;;;;;-5.80;68.48;100686.31;1738908;81;21073;-76
2023/01/07 01:10:46;;;;;;;7.95;5.37;;;;;;;-5.74;68.48;100685.30;1757522;81;21147;-77
2023/01/07 01:13:15;;;;;;;9.03;4.75;;;;;;;-5.74;68.35;100681.41;1741931;82;21015;-75
2023/01/07 01:15:44;;;;;;;9.48;4.75;;;;;;;-5.76;68.29;100676.73;1752637;80;21688;-78
2023/01/07 01:18:11;;;;;;;8.10;4.55;;;;;;;-5.77;68.01;100673.75;1774205;80;21038;-76
2023/01/07 01:20:38;;;;;;;7.00;4.15;;;;;;;-5.79;67.81;100670.36;1774402;80;21022;-75
2023/01/07 01:23:04;;;;;;;8.68;4.62;;;;;;;-5.82;67.98;100667.84;1768245;80;21144;-74
2023/01/07 01:25:33;;;;;;;7.42;3.92;;;;;;;-5.80;67.83;100670.78;1773083;79;21065;-75
2023/01/07 01:27:59;;;;;;;6.75;4.03;;;;;;;-5.84;67.85;100671.75;1774616;80;21494;-75
2023/01/07 01:30:26;;;;;;;7.00;4.45;;;;;;;-5.86;68.09;100672.24;1760250;80;21062;-77
2023/01/07 01:32:52;;;;;;;8.93;5.05;;;;;;;-5.81;68.18;100674.27;1722978;80;21016;-74
2023/01/07 01:35:19;;;;;;;6.72;4.25;;;;;;;-5.79;68.15;100672.95;1757410;80;21238;-77
2023/01/07 01:37:47;;;;;;;7.70;4.12;;;;;;;-5.83;68.13;100677.35;1790582;79;22039;-77
2023/01/07 01:40:13;;;;;;;9.08;4.42;;;;;;;-5.85;68.11;100676.97;1813188;79;21021;-78
2023/01/07 01:42:42;;;;;;;7.22;4.30;;;;;;;-5.90;67.86;100673.67;1812008;79;21006;-79
2023/01/07 01:45:12;;;;;;;7.50;4.28;;;;;;;-5.95;68.07;100673.81;1782756;79;20994;-78
2023/01/07 01:47:50;;;;;;;8.53;4.53;;;;;;;-5.90;68.04;100677.10;1812336;78;21095;-80
2023/01/07 01:50:36;;;;;;;7.20;4.37;;;;;;;-5.88;68.21;100677.06;1699543;83;21017;-79
2023/01/07 01:53:11;;;;;;;7.78;4.65;;;;;;;-5.87;68.10;100677.03;1804209;78;20995;-80
2023/01/07 01:55:47;;;;;;;7.85;4.15;;;;;;;-5.88;68.15;100679.20;1799014;79;21319;-81
2023/01/07 01:58:19;;;;;;;8.95;4.40;;;;;;;-5.82;68.35;100670.42;1812628;79;21002;-81
2023/01/07 02:00:46;;;;;;;7.60;4.83;;;;;;;-5.81;68.01;100669.09;1784201;79;22111;-80
2023/01/07 02:03:17;;;;;;;9.83;4.50;;;;;;;-5.85;67.99;100663.60;1724404;82;21084;-79
2023/01/07 02:05:44;;;;;;;7.70;4.55;;;;;;;-5.91;67.78;100666.36;1723456;80;21089;-79
2023/01/07 02:08:10;;;;;;;8.73;4.60;;;;;;;-6.04;67.97;100655.97;1771603;80;21062;-77
2023/01/07 02:10:38;;;;;;;10.20;5.28;;;;;;;-6.13;68.13;100663.05;1747358;81;21041;-78
2023/01/07 02:13:28;;;;;;;9.18;4.58;;;;;;;-6.16;68.27;100657.98;1755728;81;21586;-77
2023/01/07 02:16:17;;;;;;;7.60;4.67;;;;;;;-6.17;68.67;100657.55;1707168;82;21021;-79
2023/01/07 02:19:16;;;;;;;8.48;4.25;;;;;;;-6.11;68.68;100663.02;1736614;82;21018;-78
2023/01/07 02:21:57;;;;;;;7.90;4.72;;;;;;;-6.05;68.73;100658.97;1777938;80;20999;-76
2023/01/07 02:24:54;;;;;;;9.20;4.83;;;;;;;-6.00;68.76;100659.70;1712012;82;21026;-79
2023/01/07 02:27:35;;;;;;;8.10;4.78;;;;;;;-5.94;68.62;100658.67;1730684;81;21802;-77
2023/01/07 02:30:36;;;;;;;8.88;5.03;;;;;;;-5.90;68.57;100656.85;1734569;82;21078;-77
2023/01/07 02:33:35;;;;;;;8.60;4.80;;;;;;;-5.86;68.39;100658.01;1755537;80;21600;-78
2023/01/07 02:36:09;;;;;;;8.58;5.50;;;;;;;-5.78;68.47;100670.29;1775522;80;20963;-78
2023/01/07 02:39:05;;;;;;;8.60;4.22;;;;;;;-5.71;68.02;100674.03;1758246;80;21026;-79
2023/01/07 02:41:40;;;;;;;6.33;4.15;;;;;;;-5.75;67.36;100669.38;1769103;80;21239;-79
2023/01/07 02:44:19;;;;;;;8.75;4.45;;;;;;;-5.85;67.68;100667.48;1786388;79;21038;-75
2023/01/07 02:46:54;;;;;;;9.00;4.08;;;;;;;-5.85;67.79;100673.09;1793145;78;21547;-76
2023/01/07 02:49:20;;;;;;;9.80;4.85;;;;;;;-5.87;67.71;100677.45;1808351;78;21005;-75
2023/01/07 02:51:47;;;;;;;7.50;4.05;;;;;;;-5.91;67.69;100678.01;1803736;79;21014;-77
2023/01/07 02:54:24;;;;;;;8.15;4.53;;;;;;;-5.92;67.79;100678.42;1808876;77;21764;-81
2023/01/07 02:57:26;;;;;;;10.88;4.87;;;;;;;-5.89;67.73;100678.81;1767701;80;21005;-79
2023/01/07 03:00:20;;;;;;;6.28;4.05;;;;;;;-5.87;67.92;100683.50;1761694;79;21585;-79
2023/01/07 03:03:01;;;;;;;;;;;;;;;-5.86;67.63;100679.16;1827420;78;21083;-79
2023/01/07 03:05:52;;;;;;;9.68;4.83;;;;;;;-5.90;67.42;100683.57;1791275;78;20199;-77
2023/01/07 03:08:29;;;;;;;8.88;4.90;;;;;;;-5.94;67.25;100678.08;1800481;78;22022;-79
2023/01/07 03:11:07;;;;;;;7.17;4.28;;;;;;;-5.97;67.42;100685.52;1801230;78;21028;-75
2023/01/07 03:13:44;;;;;;;7.95;4.85;;;;;;;-5.96;67.20;100686.36;1791706;78;21777;-76
2023/01/07 03:16:22;;;;;;;7.83;4.25;;;;;;;-5.93;67.11;100687.52;1774432;80;21490;-76
2023/01/07 03:19:29;;;;;;;8.55;4.90;;;;;;;-5.89;67.13;100683.99;1834968;78;20990;-78
2023/01/07 03:21:56;;;;;;;8.80;5.03;;;;;;;-5.83;67.01;100689.42;1818332;78;21173;-77
2023/01/07 03:24:23;;;;;;;8.88;5.17;;;;;;;-5.78;66.84;100687.11;1808942;78;20962;-79
2023/01/07 03:26:51;;;;;;;8.45;4.92;;;;;;;-5.74;66.28;100682.28;1817655;78;21029;-76
2023/01/07 03:29:18;;;;;;;7.78;5.05;;;;;;;-5.83;65.99;100679.06;1767801;81;21057;-79
2023/01/07 03:31:59;;;;;;;7.62;5.10;;;;;;;-5.97;65.82;100677.75;1765936;80;21007;-77
2023/01/07 03:34:27;;;;;;;12.25;4.65;;;;;;;-6.05;65.99;100681.41;1737086;81;21066;-74
2023/01/07 03:37:04;;;;;;;8.08;4.97;;;;;;;-6.20;66.00;100689.98;1742801;81;21077;-76
2023/01/07 03:39:32;;;;;;;9.70;5.33;;;;;;;-6.32;66.23;100690.27;1730603;81;21011;-75
2023/01/07 03:44:44;;;;;;;8.50;4.45;;;;;;;-6.38;66.23;100689.14;1707434;82;21010;-75
2023/01/07 03:47:12;;;;;;;7.28;4.70;;;;;;;-6.42;66.16;100689.65;1720601;83;21775;-76
2023/01/07 03:49:39;;;;;;;8.45;4.62;;;;;;;-6.45;66.08;100688.45;1682362;84;21054;-75
2023/01/07 03:52:07;;;;;;;7.55;4.65;;;;;;;-6.49;66.38;100687.25;1780998;80;21053;-74
2023/01/07 03:55:19;;;;;;;8.77;4.47;;;;;;;-6.44;66.46;100694.46;1876140;75;22528;-76
2023/01/07 03:57:45;;;;;;;11.18;5.12;;;;;;;-6.45;66.52;100694.91;1843357;77;21484;-74
2023/01/07 04:00:13;;;;;;;8.23;4.67;;;;;;;-6.39;66.39;100693.92;1838581;77;21057;-74
2023/01/07 04:02:44;;;;;;;8.18;4.22;;;;;;;-6.36;66.30;100703.72;1842125;77;20981;-74
2023/01/07 04:05:13;;;;;;;9.00;5.03;;;;;;;-6.30;66.32;100705.30;1840915;77;21002;-74
2023/01/07 04:07:40;;;;;;;8.88;4.90;;;;;;;-6.20;66.14;100704.63;1848478;77;20996;-74
2023/01/07 04:10:07;;;;;;;10.58;4.78;;;;;;;-6.16;65.97;100703.25;1851012;77;21508;-78
2023/01/07 04:12:36;;;;;;;8.50;4.83;;;;;;;-6.11;65.84;100700.98;1814877;78;21177;-77
2023/01/07 04:15:04;;;;;;;9.13;5.22;;;;;;;-6.05;65.62;100702.11;1776795;80;20953;-77
2023/01/07 04:17:32;;;;;;;7.75;4.20;;;;;;;-6.08;65.07;100699.17;1762249;80;21076;-75
2023/01/07 04:19:58;;;;;;;9.33;4.78;;;;;;;-6.23;64.76;100689.21;1770472;80;20990;-76
2023/01/07 04:22:27;;;;;;;8.93;4.15;;;;;;;-6.27;64.84;100697.48;1769360;79;21073;-78
2023/01/07 04:24:55;;;;;;;7.97;5.20;;;;;;;-6.29;64.97;100704.89;1778530;80;21047;-78
2023/01/07 04:27:21;;;;;;;9.98;4.97;;;;;;;-6.33;64.87;100697.64;1782735;80;21192;-78
2023/01/07 04:29:50;;;;;;;9.00;4.92;;;;;;;-6.35;64.87;100703.30;1780146;79;21541;-76
2023/01/07 04:32:18;;;;;;;9.20;5.53;;;;;;;-6.38;64.84;100704.20;1785008;79;21526;-75
2023/01/07 04:34:44;;;;;;;7.92;5.22;;;;;;;-6.40;65.01;100709.85;1765781;79;21028;-73
2023/01/07 04:37:11;;;;;;;8.00;5.35;;;;;;;-6.38;65.21;100705.94;1790520;78;21049;-72
2023/01/07 04:39:38;;;;;;;7.53;5.33;;;;;;;-6.29;65.34;100707.47;1814000;78;21005;-72
2023/01/07 04:42:05;;;;;;;9.38;4.37;;;;;;;-6.22;65.38;100703.82;1797274;78;21510;-72
2023/01/07 04:44:32;;;;;;;10.70;5.55;;;;;;;-6.16;65.10;100707.13;1817945;78;21600;-72
2023/01/07 04:46:58;;;;;;;8.15;4.90;;;;;;;-6.17;64.46;100711.03;1784527;78;21529;-72
2023/01/07 04:49:25;;;;;;;8.78;4.75;;;;;;;-6.25;64.33;100720.28;1786248;78;21269;-72
2023/01/07 04:51:52;;;;;;;8.73;6.22;;;;;;;-6.31;64.26;100715.26;1804803;78;21545;-73
2023/01/07 04:54:18;;;;;;;8.83;5.85;;;;;;;-6.30;64.57;100713.52;1773968;80;21488;-74
2023/01/07 04:56:45;;;;;;;9.00;4.90;;;;;;;-6.26;65.09;100715.13;1779564;80;21025;-73
2023/01/07 04:59:12;;;;;;;13.25;6.50;;;;;;;-6.21;64.77;100708.13;1786470;79;21072;-73
2023/01/07 05:01:38;;;;;;;8.63;5.78;;;;;;;-6.19;64.83;100711.06;1767073;80;21253;-74
2023/01/07 05:04:07;;;;;;;11.03;6.03;;;;;;;-6.15;65.02;100710.55;1789367;80;21052;-73
2023/01/07 05:06:34;;;;;;;10.25;5.60;;;;;;;-6.10;65.17;100711.72;1791860;79;21135;-72
2023/01/07 05:09:01;;;;;;;9.20;5.87;;;;;;;-6.09;64.62;100710.39;1791978;79;21565;-74
2023/01/07 05:11:29;;;;;;;10.50;5.58;;;;;;;-6.11;64.66;100710.88;1768974;79;21104;-71
2023/01/07 05:14:01;;;;;;;9.10;6.10;;;;;;;-6.10;64.82;100708.70;1787622;80;21234;-72
2023/01/07 05:16:30;;;;;;;9.33;5.55;;;;;;;-6.06;64.70;100712.08;1780716;79;21088;-75
2023/01/07 05:18:58;;;;;;;10.58;6.03;;;;;;;-6.10;64.64;100713.01;1766488;80;21045;-74
2023/01/07 05:21:25;;;;;;;10.85;5.97;;;;;;;-6.15;64.58;100721.73;1753484;80;21017;-77
2023/01/07 05:23:52;;;;;;;7.92;5.40;;;;;;;-6.13;64.78;100729.02;1763608;78;21544;-73
2023/01/07 05:26:19;;;;;;;8.30;5.53;;;;;;;-6.07;64.88;100731.05;1768180;80;21143;-75
2023/01/07 05:28:45;;;;;;;11.25;6.15;;;;;;;-6.05;64.78;100735.75;1792847;80;21038;-76
2023/01/07 05:31:12;;;;;;;10.08;5.70;;;;;;;-6.06;64.23;100742.66;1781864;79;21060;-75
2023/01/07 05:33:40;;;;;;;8.33;5.62;;;;;;;-6.19;64.23;100740.81;1784161;80;21600;-78
2023/01/07 05:36:07;;;;;;;9.90;5.53;;;;;;;-6.22;64.67;100747.38;1785315;79;21017;-77
2023/01/07 05:38:34;;;;;;;11.00;6.50;;;;;;;-6.23;64.71;100753.42;1782458;80;21243;-74
2023/01/07 05:41:01;;;;;;;10.15;5.67;;;;;;;-6.24;64.79;100748.27;1739119;80;21628;-72
2023/01/07 05:43:28;;;;;;;12.30;6.42;;;;;;;-6.25;64.89;100752.61;1772648;78;21548;-72
2023/01/07 05:45:57;;;;;;;9.35;5.90;;;;;;;-6.27;64.75;100759.55;1805365;78;21808;-73
2023/01/07 05:48:24;;;;;;;9.78;6.00;;;;;;;-6.30;64.88;100755.73;1813071;78;21564;-71
2023/01/07 05:50:51;;;;;;;9.83;6.55;;;;;;;-6.34;65.23;100760.13;1779628;80;21549;-74
2023/01/07 05:53:17;;;;;;;12.05;6.12;;;;;;;-6.30;65.12;100766.08;1816311;78;21002;-73
2023/01/07 05:55:44;;;;;;;9.10;5.95;;;;;;;-6.30;65.38;100761.36;1813882;77;21096;-72
2023/01/07 05:58:10;;;;;;;10.72;6.87;;;;;;;-6.29;65.63;100763.91;1782656;80;21045;-73
2023/01/07 06:00:37;;;;;;;12.40;7.67;;;;;;;-6.22;65.86;100766.77;1803496;79;21525;-75
2023/01/07 06:03:04;;;;;;;12.43;7.25;;;;;;;-6.16;65.75;100765.33;1774306;81;21097;-74
2023/01/07 06:05:31;;;;;;;10.13;6.50;;;;;;;-6.18;65.79;100770.11;1799104;79;21015;-74
2023/01/07 06:07:57;;;;;;;13.08;6.80;;;;;;;-6.21;66.15;100781.84;1805490;79;21564;-76
2023/01/07 06:10:24;;;;;;;13.00;7.42;;;;;;;-6.24;66.34;100785.36;1804793;79;21073;-73
2023/01/07 06:12:51;;;;;;;14.47;7.60;;;;;;;-6.28;66.48;100791.46;1805558;79;21048;-74
2023/01/07 06:15:17;;;;;;;15.03;7.17;;;;;;;-6.29;66.81;100783.77;1803990;79;21602;-75
2023/01/07 06:17:44;;;;;;;16.25;8.13;;;;;;;-6.26;66.93;100780.63;1782428;79;21034;-78
2023/01/07 06:20:11;;;;;;;15.53;7.97;;;;;;;-6.24;66.76;100780.19;1774669;81;20994;-75
2023/01/07 06:22:37;;;;;;;15.30;7.87;;;;;;;-6.32;66.87;100792.42;1775472;79;21075;-74
2023/01/07 06:25:04;;;;;;;14.87;7.47;;;;;;;-6.40;67.10;100785.29;1793008;80;21053;-75
2023/01/07 06:27:32;;;;;;;16.10;7.80;;;;;;;-6.41;67.15;100792.63;1797171;79;21826;-74
2023/01/07 06:29:58;;;;;;;14.20;7.78;;;;;;;-6.48;67.21;100801.42;1798427;79;21069;-72
2023/01/07 06:32:25;;;;;;;18.85;9.30;;;;;;;-6.52;67.48;100801.94;1804024;79;21017;-76
2023/01/07 06:34:51;;;;;;;19.17;9.25;;;;;;;-6.49;67.68;100799.71;1805529;79;21731;-74
2023/01/07 06:37:18;;;;;;;16.42;8.63;;;;;;;-6.49;67.95;100808.76;1781748;79;21040;-75
2023/01/07 06:39:45;;;;;;;13.95;8.60;;;;;;;-6.45;67.89;100802.21;1803134;79;21225;-76
2023/01/07 06:42:11;;;;;;;15.48;8.15;;;;;;;-6.46;67.71;100811.29;1794360;79;21052;-76
2023/01/07 06:44:38;;;;;;;16.32;8.38;;;;;;;-6.54;67.52;100817.47;1780780;80;21044;-75
2023/01/07 06:47:04;;;;;;;12.68;7.95;;;;;;;-6.57;67.52;100819.27;1784773;79;21037;-75
2023/01/07 06:49:31;;;;;;;17.20;7.75;;;;;;;-6.62;67.54;100824.55;1781610;79;21061;-76
2023/01/07 06:51:57;;;;;;;16.10;9.13;;;;;;;-6.65;67.38;100828.48;1799757;79;21839;-76
2023/01/07 06:54:24;;;;;;;17.57;8.83;;;;;;;-6.67;67.35;100831.53;1818978;78;20960;-73
2023/01/07 06:56:50;;;;;;;15.30;7.80;;;;;;;-6.74;67.05;100832.54;1830837;78;20958;-76
2023/01/07 06:59:17;;;;;;;16.05;8.55;;;;;;;-6.77;67.14;100835.20;1806256;78;20970;-75
2023/01/07 07:01:43;;;;;;;16.52;9.03;;;;;;;-6.79;67.10;100840.84;1805433;79;21683;-75
2023/01/07 07:04:10;;;;;;;14.70;8.40;;;;;;;-6.81;67.03;100847.33;1798591;79;21499;-75
2023/01/07 07:06:37;;;;;;;17.87;8.55;;;;;;;-6.83;66.75;100845.67;1793206;79;20946;-78
2023/01/07 07:09:03;;;;;;;18.87;9.50;;;;;;;-6.80;67.12;100859.39;1788393;78;21041;-76
2023/01/07 07:11:31;;;;;;;15.80;8.45;;;;;;;-6.74;67.13;100857.97;1821922;76;21120;-71
2023/01/07 07:13:58;;;;;;;17.67;9.33;;;;;;;-6.68;67.09;100862.58;1800578;78;21021;-74
2023/01/07 07:16:25;;;;;;;17.75;9.30;;;;;;;-6.69;66.95;100862.19;1815472;78;21151;-74
2023/01/07 07:18:52;;;;;;;18.73;9.78;;;;;;;-6.69;66.55;100864.32;1784219;78;21028;-75
2023/01/07 07:21:19;;;;;;;14.95;8.58;;;;;;;-6.72;66.60;100865.24;1808947;78;20980;-74
2023/01/07 07:23:45;;;;;;;16.25;9.15;;;;;;;-6.68;66.55;100875.09;1793073;80;21002;-74
2023/01/07 07:26:11;;;;;;;18.42;9.58;;;;;;;-6.70;66.50;100876.85;1825116;78;20966;-76
2023/01/07 07:28:41;;;;;;;16.50;9.33;;;;;;;-6.71;66.32;100877.72;1804257;78;21233;-75
2023/01/07 07:31:07;;;;;;;17.62;9.23;;;;;;;-6.69;66.33;100877.24;1789573;79;21030;-74
2023/01/07 07:33:35;;;;;;;13.62;8.20;;;;;;;-6.70;66.14;100878.56;1783623;80;21447;-76
2023/01/07 07:36:01;;;;;;;22.85;10.05;;;;;;;-6.74;66.41;100888.10;1796798;80;21018;-72
2023/01/07 07:38:28;;;;;;;20.82;10.50;;;;;;;-6.63;66.77;100895.66;1791028;80;20927;-73
2023/01/07 07:40:56;;;;;;;18.10;8.90;;;;;;;-6.58;66.85;100888.67;1796566;79;20951;-73
2023/01/07 07:43:23;;;;;;;20.32;10.10;;;;;;;-6.52;66.50;100889.38;1792591;80;20997;-72
2023/01/07 07:45:49;;;;;;;20.05;10.08;;;;;;;-6.50;66.31;100882.05;1807127;78;20978;-75
2023/01/07 07:48:17;;;;;;;16.20;8.90;;;;;;;-6.48;66.19;100882.87;1792472;80;20978;-74
2023/01/07 07:50:44;;;;;;;15.48;8.33;;;;;;;-6.46;66.26;100886.27;1794996;78;21073;-74
2023/01/07 07:53:10;;;;;;;18.55;9.38;;;;;;;-6.37;66.09;100884.34;1772906;80;21805;-74
2023/01/07 07:55:37;;;;;;;15.35;9.00;;;;;;;-6.31;66.00;100885.10;1764481;81;20982;-74
2023/01/07 07:58:03;;;;;;;14.28;9.03;;;;;;;-6.30;65.97;100884.20;1786215;80;20973;-77
2023/01/07 08:00:30;;;;;;;17.12;9.38;;;;;;;-6.27;65.76;100891.91;1795096;80;21016;-74
2023/01/07 08:02:58;;;;;;;18.42;9.73;;;;;;;-6.25;65.70;100894.86;1780221;80;20971;-74
2023/01/07 08:05:26;;;;;;;15.63;9.15;;;;;;;-6.21;65.86;100899.53;1779883;80;21229;-74
2023/01/07 08:07:52;;;;;;;15.30;9.30;;;;;;;-6.10;66.10;100900.56;1781020;80;21093;-75
2023/01/07 08:10:19;;;;;;;19.40;10.35;;;;;;;-5.97;66.04;100903.30;1781012;80;21006;-74
2023/01/07 08:12:47;;;;;;;16.77;9.15;;;;;;;-5.87;65.59;100902.19;1781244;80;20979;-74
2023/01/07 08:15:15;;;;;;;15.98;10.13;;;;;;;-5.77;64.99;100900.23;1781095;80;21072;-75
2023/01/07 08:17:42;;;;;;;19.17;9.35;;;;;;;-5.67;64.96;100907.34;1778468;80;21166;-75
2023/01/07 08:20:11;;;;;;;15.45;8.45;;;;;;;-5.58;64.80;100901.95;1781943;80;21005;-76
2023/01/07 08:22:38;;;;;;;14.50;8.90;;;;;;;-5.47;64.82;100902.51;1781767;79;20929;-78
2023/01/07 08:25:06;;;;;;;14.28;8.80;;;;;;;-5.35;64.39;100906.11;1772468;80;21012;-76
2023/01/07 08:27:32;;;;;;;15.13;8.05;;;;;;;-5.28;63.98;100899.47;1773854;80;21604;-77
2023/01/07 08:29:59;;;;;;;18.82;8.63;;;;;;;-5.30;63.94;100911.61;1765038;81;21211;-76
2023/01/07 08:32:25;;;;;;;17.25;8.98;;;;;;;-5.27;63.82;100902.03;1764514;80;21496;-76
2023/01/07 08:34:52;;;;;;;15.45;8.93;;;;;;;-5.38;62.78;100899.70;1778862;80;21077;-76
2023/01/07 08:37:18;;;;;;;16.48;9.18;;;;;;;-5.58;62.15;100907.13;1796272;80;20981;-75
2023/01/07 08:39:45;;;;;;;14.78;7.33;;;;;;;-5.66;62.62;100906.44;1779325;78;20982;-76
2023/01/07 08:42:12;;;;;;;12.85;7.80;;;;;;;-5.67;62.47;100907.34;1782434;78;21373;-75
2023/01/07 08:44:38;;;;;;;15.55;8.50;;;;;;;-5.68;62.46;100906.46;1776321;80;20966;-76
2023/01/07 08:47:09;;;;;;;16.45;8.58;;;;;;;-5.70;62.73;100908.24;1785111;76;20986;-77
2023/01/07 08:49:37;;;;;;;17.73;9.23;;;;;;;-5.65;62.87;100898.64;1796688;76;21084;-78
2023/01/07 08:52:04;;;;;;;15.13;8.65;;;;;;;-5.63;62.57;100904.63;1796762;76;21141;-78
2023/01/07 08:54:30;;;;;;;16.17;9.05;;;;;;;-5.66;62.25;100905.14;1787336;76;21138;-76
2023/01/07 08:56:57;;;;;;;17.57;9.18;;;;;;;-5.62;62.64;100899.00;1804145;76;20954;-76
2023/01/07 08:59:24;;;;;;;13.83;8.85;;;;;;;-5.60;62.83;100889.03;1796511;79;21030;-77
2023/01/07 09:01:50;;;;;;;14.33;8.38;;;;;;;-5.46;62.48;100886.55;1761016;81;21052;-75
2023/01/07 09:04:19;;;;;;;16.35;9.33;;;;;;;-5.42;62.23;100886.42;1772242;79;20988;-78
2023/01/07 09:06:45;;;;;;;16.48;8.90;;;;;;;-5.42;62.31;100888.17;1783081;78;21065;-74
2023/01/07 09:09:15;;;;;;;17.35;9.38;;;;;;;-5.41;62.27;100888.56;1831483;75;21002;-77
2023/01/07 09:11:41;;;;;;;16.85;9.18;;;;;;;-5.39;61.95;100882.47;1833646;75;20979;-78
2023/01/07 09:14:08;;;;;;;18.37;10.03;;;;;;;-5.40;61.75;100876.03;1772325;78;20941;-78
2023/01/07 09:16:35;;;;;;;15.98;9.23;;;;;;;-5.38;62.13;100872.95;1798577;78;21007;-76
2023/01/07 09:19:03;;;;;;;18.75;8.85;;;;;;;-5.31;62.32;100873.21;1797461;80;21256;-76
2023/01/07 09:21:29;;;;;;;14.98;8.60;;;;;;;-5.24;62.12;100876.48;1794399;78;21427;-79
2023/01/07 09:23:56;;;;;;;14.18;8.58;;;;;;;-5.20;62.00;100869.03;1799010;78;21148;-77
2023/01/07 09:26:23;;;;;;;17.00;8.08;;;;;;;-5.11;61.51;100873.97;1787542;78;21003;-77
2023/01/07 09:28:49;;;;;;;14.03;8.48;;;;;;;-5.09;61.33;100868.75;1817924;78;21036;-76
2023/01/07 09:31:16;;;;;;;14.90;8.75;;;;;;;-5.05;61.38;100879.44;1791014;80;21131;-77
2023/01/07 09:33:42;;;;;;;17.35;8.05;;;;;;;-4.98;61.32;100875.34;1824944;77;21090;-77
2023/01/07 09:36:08;;;;;;;14.75;9.35;;;;;;;-4.97;60.75;100871.84;1831162;78;20934;-75
2023/01/07 09:38:36;;;;;;;16.45;9.50;;;;;;;-4.99;60.82;100875.38;1801852;78;20975;-76
2023/01/07 09:41:02;;;;;;;18.45;8.98;;;;;;;-5.04;60.57;100878.11;1796478;80;21060;-74
2023/01/07 09:43:42;;;;;;;19.17;9.45;;;;;;;-5.05;60.79;100884.17;1813206;77;21440;-77
2023/01/07 09:46:08;;;;;;;14.60;8.50;;;;;;;-5.01;60.31;100880.60;1830128;78;20966;-75
2023/01/07 09:48:52;;;;;;;15.35;8.78;;;;;;;-4.99;60.66;100880.56;1805461;78;21035;-77
2023/01/07 09:51:25;;;;;;;;;;;;;;;-4.95;60.79;100877.00;1776815;78;20996;-79
2023/01/07 09:53:53;;;;;;;14.00;7.62;;;;;;;-4.81;60.97;100886.98;1787395;80;20314;-77
2023/01/07 09:56:30;;;;;;;16.05;8.90;;;;;;;-4.81;59.74;100880.50;1791160;79;21331;-74
2023/01/07 09:58:59;;;;;;;16.85;8.85;;;;;;;-4.87;59.53;100878.09;1793174;79;21013;-75
2023/01/07 10:02:00;;;;;;;16.37;9.98;;;;;;;-4.94;59.75;100881.30;1797016;78;20978;-77
2023/01/07 10:04:54;;;;;;;17.95;9.93;;;;;;;-4.96;59.74;100880.50;1798314;79;21002;-77
2023/01/07 10:07:35;;;;;;;16.15;9.40;;;;;;;-4.94;59.82;100882.14;1771675;79;20973;-76
2023/01/07 10:10:19;;;;;;;18.00;11.12;;;;;;;-4.90;59.95;100876.44;1783656;79;21115;-76
2023/01/07 10:13:17;;;;;;;18.80;10.48;;;;;;;-4.88;60.16;100878.99;1790162;79;21025;-74
2023/01/07 10:16:21;;;;;;;13.72;8.73;;;;;;;-4.83;60.24;100882.28;1816012;78;21025;-76
2023/01/07 10:19:08;;;;;;;15.85;9.13;;;;;;;-4.79;59.91;100880.02;1813060;78;20989;-74
2023/01/07 10:22:00;;;;;;;20.90;9.30;;;;;;;-4.76;59.41;100887.72;1789555;80;20997;-74
2023/01/07 10:24:40;;;;;;;17.00;9.38;;;;;;;-4.76;59.47;100887.27;1787963;79;21111;-77
2023/01/07 10:27:12;;;;;;;20.75;10.38;;;;;;;-4.71;59.66;100883.27;1831748;75;21045;-76
2023/01/07 10:29:42;;;;;;;16.30;10.63;;;;;;;-4.67;59.72;100887.92;1802058;78;20969;-75
2023/01/07 10:32:14;;;;;;;17.95;10.05;;;;;;;-4.50;59.70;100892.18;1823659;78;20998;-75
2023/01/07 10:34:46;;;;;;;17.00;9.60;;;;;;;-4.19;59.99;100889.53;1820517;77;21001;-75
2023/01/07 10:37:36;;;;;;;16.42;10.45;;;;;;;-3.78;59.94;100892.59;1822081;75;21124;-75
2023/01/07 10:40:41;;;;;;;14.75;9.53;;;;;;;-3.39;59.11;100886.15;1787796;76;21113;-77
2023/01/07 10:43:50;;;;;;;17.27;10.48;;;;;;;-3.13;57.85;100881.80;1800421;78;21006;-75
2023/01/07 10:46:54;;;;;;;16.23;8.70;;;;;;;-2.91;57.79;100884.53;1803089;79;21002;-77
2023/01/07 10:49:51;;;;;;;16.20;10.75;;;;;;;-2.70;57.09;100879.85;1790846;79;20983;-74
2023/01/07 10:52:32;;;;;;;18.87;10.82;;;;;;;-2.77;56.22;100886.17;1795445;80;21184;-73
2023/01/07 10:55:19;;;;;;;14.95;9.63;;;;;;;-2.85;56.47;100883.00;1826766;78;21076;-73
2023/01/07 10:57:47;;;;;;;15.20;9.73;;;;;;;-2.85;56.69;100885.60;1777411;80;21303;-76
2023/01/07 11:00:15;;;;;;;17.25;10.32;;;;;;;-2.82;56.47;100885.05;1717720;81;21053;-73
2023/01/07 11:02:49;;;;;;;15.32;10.63;;;;;;;-2.85;56.38;100886.44;1747649;82;21104;-76
2023/01/07 11:05:20;;;;;;;18.40;11.30;;;;;;;-2.87;56.33;100891.31;1751933;81;21898;-75
2023/01/07 11:07:54;;;;;;;16.27;9.58;;;;;;;-2.85;56.31;100891.64;1709713;83;21036;-74
2023/01/07 11:10:28;;;;;;;16.60;9.85;;;;;;;-2.88;56.29;100881.34;1741649;82;21083;-76
2023/01/07 11:13:02;;;;;;;16.87;10.08;;;;;;;-2.94;55.68;100885.92;1719764;82;21037;-76
2023/01/07 11:15:43;;;;;;;15.40;10.15;;;;;;;-3.11;55.56;100879.58;1749217;81;21675;-74
2023/01/07 11:18:28;;;;;;;15.43;9.48;;;;;;;-3.23;56.14;100879.52;1746216;81;21054;-75
2023/01/07 11:20:56;;;;;;;;;;;;;;;-3.25;56.01;100885.22;1734983;80;21516;-74
2023/01/07 11:23:35;;;;;;;16.65;9.45;;;;;;;-3.28;55.10;100874.11;1724000;82;20188;-76
2023/01/07 11:26:31;;;;;;;18.85;9.78;;;;;;;-3.50;55.32;100876.09;1735406;80;21070;-74
2023/01/07 11:29:03;;;;;;;18.30;10.53;;;;;;;-3.61;55.90;100883.42;1735208;80;21034;-75
2023/01/07 11:31:57;;;;;;;18.42;9.93;;;;;;;-3.65;56.23;100885.69;1732542;81;21136;-76
2023/01/07 11:34:34;;;;;;;17.80;10.90;;;;;;;-3.69;56.24;100899.25;1743861;81;21039;-76
2023/01/07 11:37:02;;;;;;;20.12;10.30;;;;;;;-3.73;56.57;100892.88;1722633;82;21006;-80
2023/01/07 11:39:34;;;;;;;16.40;10.93;;;;;;;-3.66;57.03;100893.09;1727371;81;21124;-81
2023/01/07 11:42:37;;;;;;;15.50;9.50;;;;;;;-3.43;57.27;100889.30;1743003;81;21050;-77
2023/01/07 11:44:34;;;;;;;;;;;;;;;-3.14;56.98;100897.02;1733250;81;21263;-80